LTBA

Istanbul/Atatürk Airport

Airport
ICAO code
LTBA
IATA Code
IST
Summary
ICAO Region
EUR
ICAO Territory
Location

Yeşilköy, Istanbul

Serving
Istanbul
Elevation
163 ft
Coordinates
40° 58' 29" N , 28° 48' 35" E
KCC
Csa
Metar
Observation
LTBA 131850Z 08009KT CAVOK 25/21 Q1008 NOSIG
Station
Istanbul / Ataturk
Date/Time
2022-08-13 18:50:00
Wind direction
80°
Wind speed
09 kts
Lowest cloud amount
clouds and visibility OK
Temperature
25°C
Dew point
21°C
Humidity
78%
QNH
1008 hPa
Weather condition
n/a

Airport serving city of Istanbul. Until April 2019, it was the main international airport serving Istanbul.

Climatology

Dry-summer subtropical ”Mediterranean" climate (Köppen climate classification Csa)

Runways

Designator Length Width Surface Rops
5/23 2600 60 ASP Yes/Yes
17L/35R 3000 45 CON Yes/Yes
17R/35L 3000 45 CON Yes/Yes

Airport map

Aerial View

SKYbrary Partners:

Safety knowledge contributed by: